sensor_id;sensor_type;location;lat;lon;timestamp;P1;durP1;ratioP1;P2;durP2;ratioP2
58966;SDS011;44744;51.894;5.080;2022-08-21T00:00:45;7.80;;;3.10;;
58966;SDS011;44744;51.894;5.080;2022-08-21T00:01:47;11.30;;;4.20;;
58966;SDS011;44744;51.894;5.080;2022-08-21T00:02:49;4.30;;;3.00;;
58966;SDS011;44744;51.894;5.080;2022-08-21T00:03:52;9.80;;;3.50;;
58966;SDS011;44744;51.894;5.080;2022-08-21T00:04:52;4.70;;;2.80;;
58966;SDS011;44744;51.894;5.080;2022-08-21T00:05:53;5.50;;;3.10;;
58966;SDS011;44744;51.894;5.080;2022-08-21T00:06:53;7.20;;;3.30;;
58966;SDS011;44744;51.894;5.080;2022-08-21T00:07:54;4.90;;;2.60;;
58966;SDS011;44744;51.894;5.080;2022-08-21T00:08:55;7.80;;;3.20;;
58966;SDS011;44744;51.894;5.080;2022-08-21T00:09:55;5.80;;;3.10;;
58966;SDS011;44744;51.894;5.080;2022-08-21T00:10:56;5.80;;;2.80;;
58966;SDS011;44744;51.894;5.080;2022-08-21T00:11:56;7.90;;;3.20;;
58966;SDS011;44744;51.894;5.080;2022-08-21T00:12:57;4.60;;;3.00;;
58966;SDS011;44744;51.894;5.080;2022-08-21T00:13:58;6.80;;;3.20;;
58966;SDS011;44744;51.894;5.080;2022-08-21T00:14:58;5.70;;;2.80;;
58966;SDS011;44744;51.894;5.080;2022-08-21T00:15:59;5.60;;;3.10;;
58966;SDS011;44744;51.894;5.080;2022-08-21T00:17:00;4.50;;;3.00;;
58966;SDS011;44744;51.894;5.080;2022-08-21T00:18:00;5.20;;;2.80;;
58966;SDS011;44744;51.894;5.080;2022-08-21T00:19:02;5.40;;;3.10;;
58966;SDS011;44744;51.894;5.080;2022-08-21T00:20:05;5.90;;;3.00;;
58966;SDS011;44744;51.894;5.080;2022-08-21T00:21:08;7.30;;;3.10;;
58966;SDS011;44744;51.894;5.080;2022-08-21T00:22:08;8.20;;;3.10;;
58966;SDS011;44744;51.894;5.080;2022-08-21T00:23:08;10.40;;;3.10;;
58966;SDS011;44744;51.894;5.080;2022-08-21T00:24:09;8.20;;;3.40;;
58966;SDS011;44744;51.894;5.080;2022-08-21T00:25:11;6.10;;;2.90;;
58966;SDS011;44744;51.894;5.080;2022-08-21T00:26:12;6.00;;;3.30;;
58966;SDS011;44744;51.894;5.080;2022-08-21T00:27:13;5.00;;;2.80;;
58966;SDS011;44744;51.894;5.080;2022-08-21T00:28:14;6.90;;;3.10;;
58966;SDS011;44744;51.894;5.080;2022-08-21T00:30:16;6.10;;;3.40;;
58966;SDS011;44744;51.894;5.080;2022-08-21T00:31:18;7.50;;;3.40;;
58966;SDS011;44744;51.894;5.080;2022-08-21T00:32:20;4.80;;;2.90;;
58966;SDS011;44744;51.894;5.080;2022-08-21T00:33:22;6.80;;;2.80;;
58966;SDS011;44744;51.894;5.080;2022-08-21T00:34:22;8.50;;;3.00;;
58966;SDS011;44744;51.894;5.080;2022-08-21T00:35:24;5.30;;;3.10;;
58966;SDS011;44744;51.894;5.080;2022-08-21T00:36:34;4.50;;;2.80;;
58966;SDS011;44744;51.894;5.080;2022-08-21T00:37:35;6.70;;;3.20;;
58966;SDS011;44744;51.894;5.080;2022-08-21T00:38:35;7.80;;;3.70;;
58966;SDS011;44744;51.894;5.080;2022-08-21T00:39:36;6.20;;;3.40;;
58966;SDS011;44744;51.894;5.080;2022-08-21T00:40:39;8.00;;;3.10;;
58966;SDS011;44744;51.894;5.080;2022-08-21T00:41:48;6.20;;;3.20;;
58966;SDS011;44744;51.894;5.080;2022-08-21T00:42:48;5.90;;;3.00;;
58966;SDS011;44744;51.894;5.080;2022-08-21T00:43:49;9.00;;;3.20;;
58966;SDS011;44744;51.894;5.080;2022-08-21T00:44:50;6.70;;;3.20;;
58966;SDS011;44744;51.894;5.080;2022-08-21T00:45:50;6.10;;;2.90;;
58966;SDS011;44744;51.894;5.080;2022-08-21T00:46:51;6.60;;;3.40;;
58966;SDS011;44744;51.894;5.080;2022-08-21T00:47:52;6.50;;;3.30;;
58966;SDS011;44744;51.894;5.080;2022-08-21T00:48:52;7.80;;;3.30;;
58966;SDS011;44744;51.894;5.080;2022-08-21T00:49:52;5.50;;;3.00;;
58966;SDS011;44744;51.894;5.080;2022-08-21T00:51:36;6.80;;;3.20;;
58966;SDS011;44744;51.894;5.080;2022-08-21T00:52:22;6.10;;;3.30;;
58966;SDS011;44744;51.894;5.080;2022-08-21T00:53:27;5.80;;;3.10;;
58966;SDS011;44744;51.894;5.080;2022-08-21T00:54:29;5.80;;;3.00;;
58966;SDS011;44744;51.894;5.080;2022-08-21T00:55:31;6.00;;;3.10;;
58966;SDS011;44744;51.894;5.080;2022-08-21T00:56:33;7.70;;;3.70;;
58966;SDS011;44744;51.894;5.080;2022-08-21T00:57:36;6.50;;;3.20;;
58966;SDS011;44744;51.894;5.080;2022-08-21T00:58:40;9.60;;;3.60;;
58966;SDS011;44744;51.894;5.080;2022-08-21T00:59:43;6.50;;;3.60;;
58966;SDS011;44744;51.894;5.080;2022-08-21T01:00:49;7.50;;;3.30;;
58966;SDS011;44744;51.894;5.080;2022-08-21T01:01:52;8.70;;;3.50;;
58966;SDS011;44744;51.894;5.080;2022-08-21T01:02:53;7.20;;;3.60;;
58966;SDS011;44744;51.894;5.080;2022-08-21T01:03:53;6.50;;;3.70;;
58966;SDS011;44744;51.894;5.080;2022-08-21T01:04:53;8.30;;;3.60;;
58966;SDS011;44744;51.894;5.080;2022-08-21T01:05:54;5.50;;;3.40;;
58966;SDS011;44744;51.894;5.080;2022-08-21T01:06:54;5.30;;;3.10;;
58966;SDS011;44744;51.894;5.080;2022-08-21T01:07:55;6.20;;;3.30;;
58966;SDS011;44744;51.894;5.080;2022-08-21T01:08:55;6.10;;;3.30;;
58966;SDS011;44744;51.894;5.080;2022-08-21T01:09:55;9.10;;;3.40;;
58966;SDS011;44744;51.894;5.080;2022-08-21T01:10:56;7.60;;;3.40;;
58966;SDS011;44744;51.894;5.080;2022-08-21T01:11:58;7.10;;;3.30;;
58966;SDS011;44744;51.894;5.080;2022-08-21T01:12:59;6.00;;;3.30;;
58966;SDS011;44744;51.894;5.080;2022-08-21T01:13:59;7.60;;;3.20;;
58966;SDS011;44744;51.894;5.080;2022-08-21T01:15:01;7.00;;;3.30;;
58966;SDS011;44744;51.894;5.080;2022-08-21T01:16:04;7.50;;;3.90;;
58966;SDS011;44744;51.894;5.080;2022-08-21T01:17:09;10.20;;;3.90;;
58966;SDS011;44744;51.894;5.080;2022-08-21T01:18:12;7.00;;;3.20;;
58966;SDS011;44744;51.894;5.080;2022-08-21T01:19:13;7.10;;;3.30;;
58966;SDS011;44744;51.894;5.080;2022-08-21T01:20:15;11.40;;;3.90;;
58966;SDS011;44744;51.894;5.080;2022-08-21T01:22:22;7.90;;;3.80;;
58966;SDS011;44744;51.894;5.080;2022-08-21T01:23:25;7.90;;;3.80;;
58966;SDS011;44744;51.894;5.080;2022-08-21T01:24:38;11.00;;;3.50;;
58966;SDS011;44744;51.894;5.080;2022-08-21T01:25:39;7.00;;;3.30;;
58966;SDS011;44744;51.894;5.080;2022-08-21T01:26:39;6.80;;;3.50;;
58966;SDS011;44744;51.894;5.080;2022-08-21T01:27:41;7.00;;;3.30;;
58966;SDS011;44744;51.894;5.080;2022-08-21T01:28:44;7.70;;;3.50;;
58966;SDS011;44744;51.894;5.080;2022-08-21T01:29:51;8.20;;;3.90;;
58966;SDS011;44744;51.894;5.080;2022-08-21T01:30:56;6.40;;;3.30;;
58966;SDS011;44744;51.894;5.080;2022-08-21T01:31:58;8.10;;;3.30;;
58966;SDS011;44744;51.894;5.080;2022-08-21T01:33:03;7.00;;;3.40;;
58966;SDS011;44744;51.894;5.080;2022-08-21T01:34:04;6.80;;;3.00;;
58966;SDS011;44744;51.894;5.080;2022-08-21T01:35:05;7.10;;;3.50;;
58966;SDS011;44744;51.894;5.080;2022-08-21T01:37:09;6.90;;;3.30;;
58966;SDS011;44744;51.894;5.080;2022-08-21T01:38:11;7.60;;;3.30;;
58966;SDS011;44744;51.894;5.080;2022-08-21T01:39:11;7.20;;;3.50;;
58966;SDS011;44744;51.894;5.080;2022-08-21T01:40:12;6.50;;;3.40;;
58966;SDS011;44744;51.894;5.080;2022-08-21T01:41:15;6.80;;;3.40;;
58966;SDS011;44744;51.894;5.080;2022-08-21T01:42:16;6.50;;;4.00;;
58966;SDS011;44744;51.894;5.080;2022-08-21T01:43:16;7.10;;;3.70;;
58966;SDS011;44744;51.894;5.080;2022-08-21T01:44:19;6.40;;;3.20;;
58966;SDS011;44744;51.894;5.080;2022-08-21T01:45:23;9.00;;;4.00;;
58966;SDS011;44744;51.894;5.080;2022-08-21T01:46:24;7.60;;;3.50;;
58966;SDS011;44744;51.894;5.080;2022-08-21T01:47:24;8.30;;;4.30;;
58966;SDS011;44744;51.894;5.080;2022-08-21T01:48:24;10.00;;;3.70;;
58966;SDS011;44744;51.894;5.080;2022-08-21T01:49:25;8.30;;;3.80;;
58966;SDS011;44744;51.894;5.080;2022-08-21T01:50:28;6.70;;;3.80;;
58966;SDS011;44744;51.894;5.080;2022-08-21T01:51:29;10.90;;;4.20;;
58966;SDS011;44744;51.894;5.080;2022-08-21T01:52:29;8.40;;;3.90;;
58966;SDS011;44744;51.894;5.080;2022-08-21T01:53:29;9.60;;;4.00;;
58966;SDS011;44744;51.894;5.080;2022-08-21T01:54:30;6.90;;;3.60;;
58966;SDS011;44744;51.894;5.080;2022-08-21T01:55:31;9.70;;;4.60;;
58966;SDS011;44744;51.894;5.080;2022-08-21T01:56:35;7.40;;;4.00;;
58966;SDS011;44744;51.894;5.080;2022-08-21T01:57:40;8.50;;;3.80;;
58966;SDS011;44744;51.894;5.080;2022-08-21T01:58:41;7.10;;;3.90;;
58966;SDS011;44744;51.894;5.080;2022-08-21T01:59:43;7.00;;;3.40;;
58966;SDS011;44744;51.894;5.080;2022-08-21T02:00:43;6.50;;;3.70;;
58966;SDS011;44744;51.894;5.080;2022-08-21T02:01:44;6.80;;;4.20;;
58966;SDS011;44744;51.894;5.080;2022-08-21T02:02:44;7.40;;;3.90;;
58966;SDS011;44744;51.894;5.080;2022-08-21T02:03:45;9.70;;;4.00;;
58966;SDS011;44744;51.894;5.080;2022-08-21T02:04:45;7.70;;;4.20;;
58966;SDS011;44744;51.894;5.080;2022-08-21T02:05:45;6.50;;;3.90;;
58966;SDS011;44744;51.894;5.080;2022-08-21T02:06:46;9.90;;;4.20;;
58966;SDS011;44744;51.894;5.080;2022-08-21T02:07:50;10.40;;;4.50;;
58966;SDS011;44744;51.894;5.080;2022-08-21T02:08:52;7.20;;;4.40;;
58966;SDS011;44744;51.894;5.080;2022-08-21T02:09:53;6.70;;;4.10;;
58966;SDS011;44744;51.894;5.080;2022-08-21T02:10:53;7.20;;;4.40;;
58966;SDS011;44744;51.894;5.080;2022-08-21T02:11:54;9.50;;;4.20;;
58966;SDS011;44744;51.894;5.080;2022-08-21T02:12:58;11.30;;;4.70;;
58966;SDS011;44744;51.894;5.080;2022-08-21T02:13:59;7.80;;;4.10;;
58966;SDS011;44744;51.894;5.080;2022-08-21T02:14:59;12.40;;;4.40;;
58966;SDS011;44744;51.894;5.080;2022-08-21T02:15:59;9.80;;;4.50;;
58966;SDS011;44744;51.894;5.080;2022-08-21T02:17:00;9.00;;;4.60;;
58966;SDS011;44744;51.894;5.080;2022-08-21T02:18:04;8.00;;;3.90;;
58966;SDS011;44744;51.894;5.080;2022-08-21T02:19:05;8.10;;;4.30;;
58966;SDS011;44744;51.894;5.080;2022-08-21T02:20:07;9.40;;;4.60;;
58966;SDS011;44744;51.894;5.080;2022-08-21T02:21:08;11.80;;;4.70;;
58966;SDS011;44744;51.894;5.080;2022-08-21T02:22:09;7.40;;;4.00;;
58966;SDS011;44744;51.894;5.080;2022-08-21T02:23:10;6.60;;;4.10;;
58966;SDS011;44744;51.894;5.080;2022-08-21T02:24:11;9.30;;;4.30;;
58966;SDS011;44744;51.894;5.080;2022-08-21T02:25:12;8.30;;;4.20;;
58966;SDS011;44744;51.894;5.080;2022-08-21T02:26:19;10.40;;;4.30;;
58966;SDS011;44744;51.894;5.080;2022-08-21T02:27:19;10.40;;;4.20;;
58966;SDS011;44744;51.894;5.080;2022-08-21T02:28:19;9.00;;;4.10;;
58966;SDS011;44744;51.894;5.080;2022-08-21T02:29:25;9.50;;;4.00;;
58966;SDS011;44744;51.894;5.080;2022-08-21T02:30:28;7.40;;;4.00;;
58966;SDS011;44744;51.894;5.080;2022-08-21T02:31:32;8.00;;;4.60;;
58966;SDS011;44744;51.894;5.080;2022-08-21T02:32:32;11.20;;;4.70;;
58966;SDS011;44744;51.894;5.080;2022-08-21T02:33:33;10.70;;;5.00;;
58966;SDS011;44744;51.894;5.080;2022-08-21T02:34:33;6.70;;;3.90;;
58966;SDS011;44744;51.894;5.080;2022-08-21T02:35:34;10.90;;;4.60;;
58966;SDS011;44744;51.894;5.080;2022-08-21T02:36:34;8.30;;;4.50;;
58966;SDS011;44744;51.894;5.080;2022-08-21T02:37:42;7.20;;;3.90;;
58966;SDS011;44744;51.894;5.080;2022-08-21T02:38:43;8.40;;;4.20;;
58966;SDS011;44744;51.894;5.080;2022-08-21T02:39:44;8.10;;;4.20;;
58966;SDS011;44744;51.894;5.080;2022-08-21T02:40:45;8.90;;;4.30;;
58966;SDS011;44744;51.894;5.080;2022-08-21T02:41:48;12.40;;;4.00;;
58966;SDS011;44744;51.894;5.080;2022-08-21T02:42:48;7.80;;;4.50;;
58966;SDS011;44744;51.894;5.080;2022-08-21T02:43:48;9.60;;;4.80;;
58966;SDS011;44744;51.894;5.080;2022-08-21T02:44:49;8.20;;;4.30;;
58966;SDS011;44744;51.894;5.080;2022-08-21T02:45:50;8.20;;;4.60;;
58966;SDS011;44744;51.894;5.080;2022-08-21T02:46:51;8.90;;;4.30;;
58966;SDS011;44744;51.894;5.080;2022-08-21T02:47:53;9.00;;;4.70;;
58966;SDS011;44744;51.894;5.080;2022-08-21T02:48:55;9.80;;;4.40;;
58966;SDS011;44744;51.894;5.080;2022-08-21T02:49:56;12.50;;;4.60;;
58966;SDS011;44744;51.894;5.080;2022-08-21T02:50:57;10.10;;;4.60;;
58966;SDS011;44744;51.894;5.080;2022-08-21T02:51:59;8.50;;;4.50;;
58966;SDS011;44744;51.894;5.080;2022-08-21T02:53:00;10.50;;;5.50;;
58966;SDS011;44744;51.894;5.080;2022-08-21T02:54:03;12.10;;;4.40;;
58966;SDS011;44744;51.894;5.080;2022-08-21T02:55:04;10.20;;;4.90;;
58966;SDS011;44744;51.894;5.080;2022-08-21T02:56:05;15.10;;;4.80;;
58966;SDS011;44744;51.894;5.080;2022-08-21T02:57:08;10.40;;;4.70;;
58966;SDS011;44744;51.894;5.080;2022-08-21T02:58:08;9.30;;;4.80;;
58966;SDS011;44744;51.894;5.080;2022-08-21T02:59:08;9.10;;;5.60;;
58966;SDS011;44744;51.894;5.080;2022-08-21T03:00:09;7.40;;;4.20;;
58966;SDS011;44744;51.894;5.080;2022-08-21T03:01:10;10.30;;;4.70;;
58966;SDS011;44744;51.894;5.080;2022-08-21T03:02:10;8.70;;;4.90;;
58966;SDS011;44744;51.894;5.080;2022-08-21T03:03:11;7.90;;;4.40;;
58966;SDS011;44744;51.894;5.080;2022-08-21T03:04:11;8.70;;;4.80;;
58966;SDS011;44744;51.894;5.080;2022-08-21T03:05:12;8.00;;;4.60;;
58966;SDS011;44744;51.894;5.080;2022-08-21T03:06:14;14.10;;;5.40;;
58966;SDS011;44744;51.894;5.080;2022-08-21T03:07:15;8.10;;;4.60;;
58966;SDS011;44744;51.894;5.080;2022-08-21T03:08:16;11.60;;;5.30;;
58966;SDS011;44744;51.894;5.080;2022-08-21T03:09:17;9.20;;;4.60;;
58966;SDS011;44744;51.894;5.080;2022-08-21T03:10:18;11.20;;;4.90;;
58966;SDS011;44744;51.894;5.080;2022-08-21T03:11:20;10.20;;;5.10;;
58966;SDS011;44744;51.894;5.080;2022-08-21T03:12:21;8.90;;;4.50;;
58966;SDS011;44744;51.894;5.080;2022-08-21T03:13:21;8.00;;;4.80;;
58966;SDS011;44744;51.894;5.080;2022-08-21T03:14:22;9.70;;;4.80;;
58966;SDS011;44744;51.894;5.080;2022-08-21T03:15:22;8.90;;;4.90;;
58966;SDS011;44744;51.894;5.080;2022-08-21T03:16:23;12.10;;;5.20;;
58966;SDS011;44744;51.894;5.080;2022-08-21T03:17:24;10.60;;;5.40;;
58966;SDS011;44744;51.894;5.080;2022-08-21T03:18:24;9.90;;;4.90;;
58966;SDS011;44744;51.894;5.080;2022-08-21T03:19:25;8.30;;;4.80;;
58966;SDS011;44744;51.894;5.080;2022-08-21T03:20:26;9.80;;;5.20;;
58966;SDS011;44744;51.894;5.080;2022-08-21T03:21:27;6.20;;;4.80;;
58966;SDS011;44744;51.894;5.080;2022-08-21T03:22:27;9.50;;;5.50;;
58966;SDS011;44744;51.894;5.080;2022-08-21T03:23:28;7.60;;;5.00;;
58966;SDS011;44744;51.894;5.080;2022-08-21T03:24:28;8.50;;;5.20;;
58966;SDS011;44744;51.894;5.080;2022-08-21T03:25:29;9.60;;;5.50;;
58966;SDS011;44744;51.894;5.080;2022-08-21T03:26:30;8.60;;;4.70;;
58966;SDS011;44744;51.894;5.080;2022-08-21T03:27:30;10.10;;;5.50;;
58966;SDS011;44744;51.894;5.080;2022-08-21T03:28:31;14.40;;;5.70;;
58966;SDS011;44744;51.894;5.080;2022-08-21T03:29:31;10.00;;;5.10;;
58966;SDS011;44744;51.894;5.080;2022-08-21T03:30:32;11.00;;;5.00;;
58966;SDS011;44744;51.894;5.080;2022-08-21T03:31:32;9.40;;;5.00;;
58966;SDS011;44744;51.894;5.080;2022-08-21T03:32:33;11.30;;;5.50;;
58966;SDS011;44744;51.894;5.080;2022-08-21T03:33:34;9.90;;;5.30;;
58966;SDS011;44744;51.894;5.080;2022-08-21T03:34:35;9.90;;;5.20;;
58966;SDS011;44744;51.894;5.080;2022-08-21T03:35:36;8.70;;;4.90;;
58966;SDS011;44744;51.894;5.080;2022-08-21T03:36:37;10.80;;;5.30;;
58966;SDS011;44744;51.894;5.080;2022-08-21T03:37:37;13.10;;;5.80;;
58966;SDS011;44744;51.894;5.080;2022-08-21T03:38:38;10.10;;;5.50;;
58966;SDS011;44744;51.894;5.080;2022-08-21T03:39:38;7.10;;;5.10;;
58966;SDS011;44744;51.894;5.080;2022-08-21T03:40:42;11.70;;;5.60;;
58966;SDS011;44744;51.894;5.080;2022-08-21T03:41:43;11.10;;;5.10;;
58966;SDS011;44744;51.894;5.080;2022-08-21T03:42:43;11.00;;;5.50;;
58966;SDS011;44744;51.894;5.080;2022-08-21T03:43:44;10.80;;;5.00;;
58966;SDS011;44744;51.894;5.080;2022-08-21T03:44:44;11.40;;;5.10;;
58966;SDS011;44744;51.894;5.080;2022-08-21T03:45:45;8.00;;;5.30;;
58966;SDS011;44744;51.894;5.080;2022-08-21T03:46:45;7.90;;;5.00;;
58966;SDS011;44744;51.894;5.080;2022-08-21T03:47:52;9.00;;;5.10;;
58966;SDS011;44744;51.894;5.080;2022-08-21T03:49:00;10.00;;;5.00;;
58966;SDS011;44744;51.894;5.080;2022-08-21T03:50:02;12.00;;;5.30;;
58966;SDS011;44744;51.894;5.080;2022-08-21T03:51:04;10.30;;;5.50;;
58966;SDS011;44744;51.894;5.080;2022-08-21T03:52:04;9.30;;;5.10;;
58966;SDS011;44744;51.894;5.080;2022-08-21T03:53:05;9.00;;;5.70;;
58966;SDS011;44744;51.894;5.080;2022-08-21T03:54:05;9.20;;;5.10;;
58966;SDS011;44744;51.894;5.080;2022-08-21T03:55:06;9.70;;;5.20;;
58966;SDS011;44744;51.894;5.080;2022-08-21T03:56:06;7.80;;;5.30;;
58966;SDS011;44744;51.894;5.080;2022-08-21T03:57:07;9.30;;;5.20;;
58966;SDS011;44744;51.894;5.080;2022-08-21T03:58:07;10.10;;;5.00;;
58966;SDS011;44744;51.894;5.080;2022-08-21T03:59:08;10.10;;;5.10;;
58966;SDS011;44744;51.894;5.080;2022-08-21T04:00:09;14.80;;;5.20;;
58966;SDS011;44744;51.894;5.080;2022-08-21T04:01:10;10.20;;;5.40;;
58966;SDS011;44744;51.894;5.080;2022-08-21T04:02:10;12.20;;;6.20;;
58966;SDS011;44744;51.894;5.080;2022-08-21T04:03:13;10.90;;;5.30;;
58966;SDS011;44744;51.894;5.080;2022-08-21T04:04:14;8.10;;;5.50;;
58966;SDS011;44744;51.894;5.080;2022-08-21T04:05:15;13.70;;;5.60;;
58966;SDS011;44744;51.894;5.080;2022-08-21T04:06:19;9.00;;;5.30;;
58966;SDS011;44744;51.894;5.080;2022-08-21T04:07:19;10.70;;;5.20;;
58966;SDS011;44744;51.894;5.080;2022-08-21T04:08:19;10.00;;;5.50;;
58966;SDS011;44744;51.894;5.080;2022-08-21T04:09:20;10.60;;;5.00;;
58966;SDS011;44744;51.894;5.080;2022-08-21T04:10:21;8.40;;;5.40;;
58966;SDS011;44744;51.894;5.080;2022-08-21T04:11:22;12.10;;;5.60;;
58966;SDS011;44744;51.894;5.080;2022-08-21T04:12:23;8.30;;;4.90;;
58966;SDS011;44744;51.894;5.080;2022-08-21T04:13:23;8.80;;;5.00;;
58966;SDS011;44744;51.894;5.080;2022-08-21T04:14:24;11.20;;;5.20;;
58966;SDS011;44744;51.894;5.080;2022-08-21T04:15:25;8.70;;;5.30;;
58966;SDS011;44744;51.894;5.080;2022-08-21T04:16:26;10.60;;;5.10;;
58966;SDS011;44744;51.894;5.080;2022-08-21T04:17:26;8.80;;;5.00;;
58966;SDS011;44744;51.894;5.080;2022-08-21T04:18:27;8.90;;;5.10;;
58966;SDS011;44744;51.894;5.080;2022-08-21T04:19:27;10.90;;;5.50;;
58966;SDS011;44744;51.894;5.080;2022-08-21T04:20:28;9.90;;;5.20;;
58966;SDS011;44744;51.894;5.080;2022-08-21T04:21:28;7.80;;;5.00;;
58966;SDS011;44744;51.894;5.080;2022-08-21T04:22:30;9.70;;;5.30;;
58966;SDS011;44744;51.894;5.080;2022-08-21T04:23:30;13.10;;;5.60;;
58966;SDS011;44744;51.894;5.080;2022-08-21T04:24:30;10.00;;;4.80;;
58966;SDS011;44744;51.894;5.080;2022-08-21T04:25:34;9.00;;;5.00;;
58966;SDS011;44744;51.894;5.080;2022-08-21T04:26:34;13.80;;;5.90;;
58966;SDS011;44744;51.894;5.080;2022-08-21T04:27:35;9.30;;;5.80;;
58966;SDS011;44744;51.894;5.080;2022-08-21T04:28:36;8.20;;;4.90;;
58966;SDS011;44744;51.894;5.080;2022-08-21T04:29:36;9.10;;;4.90;;
58966;SDS011;44744;51.894;5.080;2022-08-21T04:30:38;12.10;;;5.20;;
58966;SDS011;44744;51.894;5.080;2022-08-21T04:31:38;10.60;;;5.10;;
58966;SDS011;44744;51.894;5.080;2022-08-21T04:32:38;12.20;;;5.30;;
58966;SDS011;44744;51.894;5.080;2022-08-21T04:33:42;8.70;;;5.10;;
58966;SDS011;44744;51.894;5.080;2022-08-21T04:34:43;8.50;;;5.00;;
58966;SDS011;44744;51.894;5.080;2022-08-21T04:35:43;8.10;;;5.00;;
58966;SDS011;44744;51.894;5.080;2022-08-21T04:36:43;8.40;;;5.10;;
58966;SDS011;44744;51.894;5.080;2022-08-21T04:37:44;13.60;;;5.80;;
58966;SDS011;44744;51.894;5.080;2022-08-21T04:38:45;12.30;;;5.60;;
58966;SDS011;44744;51.894;5.080;2022-08-21T04:39:45;8.40;;;4.80;;
58966;SDS011;44744;51.894;5.080;2022-08-21T04:40:45;11.60;;;5.10;;
58966;SDS011;44744;51.894;5.080;2022-08-21T04:41:47;10.50;;;5.80;;
58966;SDS011;44744;51.894;5.080;2022-08-21T04:42:48;10.30;;;4.70;;
58966;SDS011;44744;51.894;5.080;2022-08-21T04:43:51;9.80;;;5.00;;
58966;SDS011;44744;51.894;5.080;2022-08-21T04:44:51;11.80;;;6.00;;
58966;SDS011;44744;51.894;5.080;2022-08-21T04:45:52;12.60;;;5.40;;
58966;SDS011;44744;51.894;5.080;2022-08-21T04:46:52;8.90;;;5.10;;
58966;SDS011;44744;51.894;5.080;2022-08-21T04:47:54;12.10;;;5.60;;
58966;SDS011;44744;51.894;5.080;2022-08-21T04:48:56;8.90;;;5.30;;
58966;SDS011;44744;51.894;5.080;2022-08-21T04:49:56;10.10;;;5.20;;
58966;SDS011;44744;51.894;5.080;2022-08-21T04:50:57;10.30;;;5.20;;
58966;SDS011;44744;51.894;5.080;2022-08-21T04:52:07;9.30;;;5.10;;
58966;SDS011;44744;51.894;5.080;2022-08-21T04:53:12;11.20;;;5.70;;
58966;SDS011;44744;51.894;5.080;2022-08-21T04:54:17;13.30;;;4.90;;
58966;SDS011;44744;51.894;5.080;2022-08-21T04:55:20;9.40;;;5.30;;
58966;SDS011;44744;51.894;5.080;2022-08-21T04:56:24;11.40;;;5.30;;
58966;SDS011;44744;51.894;5.080;2022-08-21T05:01:40;8.70;;;4.70;;
58966;SDS011;44744;51.894;5.080;2022-08-21T05:05:45;11.40;;;4.70;;
58966;SDS011;44744;51.894;5.080;2022-08-21T05:06:48;8.70;;;4.60;;
58966;SDS011;44744;51.894;5.080;2022-08-21T05:07:50;9.00;;;4.60;;
58966;SDS011;44744;51.894;5.080;2022-08-21T05:13:20;9.80;;;5.00;;
58966;SDS011;44744;51.894;5.080;2022-08-21T05:16:14;9.90;;;4.10;;
58966;SDS011;44744;51.894;5.080;2022-08-21T05:17:15;12.40;;;4.70;;
58966;SDS011;44744;51.894;5.080;2022-08-21T05:18:15;10.10;;;4.10;;
58966;SDS011;44744;51.894;5.080;2022-08-21T05:19:18;11.90;;;4.40;;
58966;SDS011;44744;51.894;5.080;2022-08-21T05:20:19;11.80;;;5.00;;
58966;SDS011;44744;51.894;5.080;2022-08-21T05:21:19;10.90;;;4.70;;
58966;SDS011;44744;51.894;5.080;2022-08-21T05:22:20;6.80;;;4.30;;
58966;SDS011;44744;51.894;5.080;2022-08-21T05:23:22;12.80;;;4.80;;
58966;SDS011;44744;51.894;5.080;2022-08-21T05:24:22;10.70;;;4.20;;
58966;SDS011;44744;51.894;5.080;2022-08-21T05:25:23;10.90;;;4.70;;
58966;SDS011;44744;51.894;5.080;2022-08-21T05:26:23;8.10;;;4.50;;
58966;SDS011;44744;51.894;5.080;2022-08-21T05:27:24;10.10;;;4.90;;
58966;SDS011;44744;51.894;5.080;2022-08-21T05:28:24;10.20;;;4.40;;
58966;SDS011;44744;51.894;5.080;2022-08-21T05:29:25;8.00;;;4.50;;
58966;SDS011;44744;51.894;5.080;2022-08-21T05:30:25;14.00;;;5.00;;
58966;SDS011;44744;51.894;5.080;2022-08-21T05:31:25;10.80;;;4.30;;
58966;SDS011;44744;51.894;5.080;2022-08-21T05:32:26;13.80;;;5.20;;
58966;SDS011;44744;51.894;5.080;2022-08-21T05:33:26;11.20;;;4.40;;
58966;SDS011;44744;51.894;5.080;2022-08-21T05:34:26;7.80;;;4.40;;
58966;SDS011;44744;51.894;5.080;2022-08-21T05:35:27;12.70;;;4.30;;
58966;SDS011;44744;51.894;5.080;2022-08-21T05:36:28;9.20;;;4.40;;
58966;SDS011;44744;51.894;5.080;2022-08-21T05:37:29;10.90;;;4.50;;
58966;SDS011;44744;51.894;5.080;2022-08-21T05:38:29;13.80;;;5.50;;
58966;SDS011;44744;51.894;5.080;2022-08-21T05:39:30;9.70;;;5.00;;
58966;SDS011;44744;51.894;5.080;2022-08-21T05:40:31;7.70;;;4.40;;
58966;SDS011;44744;51.894;5.080;2022-08-21T05:41:31;12.60;;;5.00;;
58966;SDS011;44744;51.894;5.080;2022-08-21T05:42:32;9.70;;;4.50;;
58966;SDS011;44744;51.894;5.080;2022-08-21T05:45:11;9.20;;;3.80;;
58966;SDS011;44744;51.894;5.080;2022-08-21T05:46:12;18.50;;;4.70;;
58966;SDS011;44744;51.894;5.080;2022-08-21T05:47:12;10.50;;;4.20;;
58966;SDS011;44744;51.894;5.080;2022-08-21T05:48:17;10.20;;;4.50;;
58966;SDS011;44744;51.894;5.080;2022-08-21T05:49:19;10.50;;;4.00;;
58966;SDS011;44744;51.894;5.080;2022-08-21T05:50:20;10.10;;;4.30;;
58966;SDS011;44744;51.894;5.080;2022-08-21T05:51:20;10.00;;;4.20;;
58966;SDS011;44744;51.894;5.080;2022-08-21T05:52:21;9.60;;;4.40;;
58966;SDS011;44744;51.894;5.080;2022-08-21T05:53:22;10.30;;;4.50;;
58966;SDS011;44744;51.894;5.080;2022-08-21T05:54:23;9.50;;;4.60;;
58966;SDS011;44744;51.894;5.080;2022-08-21T05:55:24;12.90;;;4.30;;
58966;SDS011;44744;51.894;5.080;2022-08-21T05:56:24;11.20;;;4.10;;
58966;SDS011;44744;51.894;5.080;2022-08-21T05:57:25;12.90;;;4.50;;
58966;SDS011;44744;51.894;5.080;2022-08-21T05:58:28;10.60;;;4.90;;
58966;SDS011;44744;51.894;5.080;2022-08-21T05:59:31;9.90;;;4.50;;
58966;SDS011;44744;51.894;5.080;2022-08-21T06:00:31;12.60;;;4.70;;
58966;SDS011;44744;51.894;5.080;2022-08-21T06:01:32;10.40;;;4.80;;
58966;SDS011;44744;51.894;5.080;2022-08-21T06:02:32;11.30;;;4.90;;
58966;SDS011;44744;51.894;5.080;2022-08-21T06:03:34;9.80;;;4.70;;
58966;SDS011;44744;51.894;5.080;2022-08-21T06:04:37;11.00;;;5.30;;
58966;SDS011;44744;51.894;5.080;2022-08-21T06:05:38;11.70;;;4.40;;
58966;SDS011;44744;51.894;5.080;2022-08-21T06:06:38;10.70;;;4.40;;
58966;SDS011;44744;51.894;5.080;2022-08-21T06:07:39;10.10;;;4.60;;
58966;SDS011;44744;51.894;5.080;2022-08-21T06:08:39;9.70;;;4.90;;
58966;SDS011;44744;51.894;5.080;2022-08-21T06:09:39;10.30;;;4.60;;
58966;SDS011;44744;51.894;5.080;2022-08-21T06:10:40;12.50;;;5.20;;
58966;SDS011;44744;51.894;5.080;2022-08-21T06:11:42;9.40;;;4.50;;
58966;SDS011;44744;51.894;5.080;2022-08-21T06:12:42;12.00;;;4.40;;
58966;SDS011;44744;51.894;5.080;2022-08-21T06:13:42;14.90;;;5.10;;
58966;SDS011;44744;51.894;5.080;2022-08-21T06:14:42;10.80;;;4.60;;
58966;SDS011;44744;51.894;5.080;2022-08-21T06:15:43;12.30;;;4.70;;
58966;SDS011;44744;51.894;5.080;2022-08-21T06:16:43;15.30;;;5.40;;
58966;SDS011;44744;51.894;5.080;2022-08-21T06:17:44;15.10;;;4.70;;
58966;SDS011;44744;51.894;5.080;2022-08-21T06:18:44;11.60;;;4.70;;
58966;SDS011;44744;51.894;5.080;2022-08-21T06:19:45;10.90;;;4.30;;
58966;SDS011;44744;51.894;5.080;2022-08-21T06:20:49;41.20;;;5.00;;
58966;SDS011;44744;51.894;5.080;2022-08-21T06:21:50;11.20;;;4.90;;
58966;SDS011;44744;51.894;5.080;2022-08-21T06:22:50;16.70;;;4.90;;
58966;SDS011;44744;51.894;5.080;2022-08-21T06:23:51;18.50;;;5.20;;
58966;SDS011;44744;51.894;5.080;2022-08-21T06:24:51;14.40;;;5.30;;
58966;SDS011;44744;51.894;5.080;2022-08-21T06:25:51;13.20;;;4.70;;
58966;SDS011;44744;51.894;5.080;2022-08-21T06:26:52;16.60;;;5.10;;